createdAt,value
2022-10-03T00:01:21.786Z,91.89
2022-10-03T00:05:24.476Z,92.14
2022-10-03T00:09:34.705Z,92.27
2022-10-03T00:13:43.871Z,91.52
2022-10-03T00:17:55.863Z,91.91
2022-10-03T00:21:47.628Z,91.83
2022-10-03T00:25:46.228Z,90.92
2022-10-03T00:29:25.471Z,91.50
2022-10-03T00:33:03.859Z,92.28
2022-10-03T00:36:49.581Z,92.45
2022-10-03T00:40:44.188Z,92.51
2022-10-03T00:44:31.553Z,92.29
2022-10-03T00:48:25.627Z,92.89
2022-10-03T00:52:19.268Z,92.07
2022-10-03T00:56:06.660Z,91.87
2022-10-03T01:00:10.249Z,91.42
2022-10-03T01:04:11.056Z,91.17
2022-10-03T01:08:13.072Z,91.58
2022-10-03T01:12:44.734Z,91.60
2022-10-03T01:16:56.776Z,91.98
2022-10-03T01:20:43.417Z,91.72
2022-10-03T01:24:35.839Z,91.45
2022-10-03T01:28:34.120Z,91.14
2022-10-03T01:32:29.072Z,91.71
2022-10-03T01:36:19.458Z,91.20
2022-10-03T01:40:01.111Z,91.01
2022-10-03T01:43:45.515Z,91.43
2022-10-03T01:47:38.985Z,91.35
2022-10-03T01:51:33.299Z,92.04
2022-10-03T01:55:11.740Z,92.51
2022-10-03T01:58:58.571Z,92.70
2022-10-03T02:02:47.560Z,93.22
2022-10-03T02:06:24.487Z,92.91
2022-10-03T02:10:02.260Z,93.54
2022-10-03T02:13:47.254Z,93.68
2022-10-03T02:17:38.455Z,94.09
2022-10-03T02:21:24.860Z,94.75
2022-10-03T02:25:06.214Z,94.52
2022-10-03T02:28:57.706Z,94.54
2022-10-03T02:33:08.071Z,93.64
2022-10-03T02:36:37.650Z,94.15
2022-10-03T02:40:17.633Z,94.14
2022-10-03T02:44:12.358Z,94.17
2022-10-03T02:48:08.441Z,93.99
2022-10-03T02:51:38.924Z,94.38
2022-10-03T02:55:51.560Z,94.24
2022-10-03T02:59:39.088Z,94.67
2022-10-03T03:03:26.914Z,95.18
2022-10-03T03:07:18.412Z,94.94
2022-10-03T03:11:17.193Z,94.38
2022-10-03T03:15:09.711Z,94.95
2022-10-03T03:18:56.629Z,95.43
2022-10-03T03:22:46.849Z,96.23
2022-10-03T03:26:42.079Z,96.11
2022-10-03T03:30:22.788Z,96.84
2022-10-03T03:34:15.453Z,96.82
2022-10-03T03:38:12.183Z,96.76
2022-10-03T03:42:03.215Z,96.80
2022-10-03T03:46:09.595Z,96.53
2022-10-03T03:50:14.639Z,96.46
2022-10-03T03:54:05.637Z,95.91
2022-10-03T03:57:36.893Z,95.42
2022-10-03T04:01:12.856Z,96.01
2022-10-03T04:04:55.857Z,96.48
2022-10-03T04:08:26.328Z,96.96
2022-10-03T04:12:47.889Z,96.50
2022-10-03T04:16:49.570Z,96.77
2022-10-03T04:20:24.764Z,96.48
2022-10-03T04:24:47.040Z,97.05
2022-10-03T04:28:41.952Z,97.88
2022-10-03T04:32:42.187Z,97.88
2022-10-03T04:36:38.176Z,97.97
2022-10-03T04:40:25.945Z,97.93
2022-10-03T04:44:12.225Z,97.65
2022-10-03T04:47:59.446Z,97.42
2022-10-03T04:51:45.407Z,97.27
2022-10-03T04:55:26.272Z,97.78
2022-10-03T04:59:04.910Z,97.60
2022-10-03T05:02:49.272Z,97.58
2022-10-03T05:06:48.802Z,97.78
2022-10-03T05:10:34.151Z,98.12
2022-10-03T05:14:28.872Z,97.34
2022-10-03T05:18:26.643Z,96.76
2022-10-03T05:22:01.876Z,96.55
2022-10-03T05:25:44.372Z,95.85
2022-10-03T05:29:45.867Z,95.10
2022-10-03T05:33:46.975Z,94.62
2022-10-03T05:37:35.746Z,94.46
2022-10-03T05:41:26.063Z,94.49
2022-10-03T05:45:26.237Z,93.63
2022-10-03T05:49:09.093Z,93.27
2022-10-03T05:52:56.414Z,92.92
2022-10-03T05:56:32.502Z,92.51
2022-10-03T06:00:18.949Z,91.39
2022-10-03T06:04:13.689Z,90.94
2022-10-03T06:08:04.843Z,89.08
2022-10-03T06:11:53.100Z,88.27
2022-10-03T06:15:55.046Z,88.19
2022-10-03T06:19:30.606Z,86.18
2022-10-03T06:23:14.008Z,84.46
2022-10-03T06:26:58.931Z,84.29
2022-10-03T06:31:07.324Z,82.96
2022-10-03T06:35:04.695Z,82.30
2022-10-03T06:38:52.225Z,80.92
2022-10-03T06:42:40.193Z,78.53
2022-10-03T06:46:35.615Z,77.26
2022-10-03T06:50:37.195Z,77.44
2022-10-03T06:54:19.438Z,76.30
2022-10-03T06:58:30.228Z,76.21
2022-10-03T07:02:32.060Z,75.29
2022-10-03T07:06:22.007Z,75.39
2022-10-03T07:10:01.247Z,74.40
2022-10-03T07:14:01.467Z,73.67
2022-10-03T07:17:39.194Z,72.58
2022-10-03T07:21:49.344Z,71.34
2022-10-03T07:25:41.402Z,70.55
2022-10-03T07:29:15.276Z,70.13
2022-10-03T07:33:19.183Z,71.00
2022-10-03T07:37:39.917Z,71.04
2022-10-03T07:41:43.274Z,70.05
2022-10-03T07:46:06.089Z,70.26
2022-10-03T07:50:01.138Z,69.66
2022-10-03T07:53:56.137Z,67.39
2022-10-03T07:57:38.331Z,67.10
2022-10-03T08:01:32.013Z,67.05
2022-10-03T08:05:27.547Z,66.25
2022-10-03T08:09:19.273Z,66.38
2022-10-03T08:13:11.608Z,67.70
2022-10-03T08:16:54.347Z,66.32
2022-10-03T08:20:37.094Z,65.94
2022-10-03T08:27:58.964Z,67.28
2022-10-03T08:31:58.243Z,65.04
2022-10-03T08:36:11.296Z,64.39
2022-10-03T08:40:07.926Z,65.62
2022-10-03T08:44:13.446Z,63.50
2022-10-03T08:48:17.846Z,63.65
2022-10-03T08:52:17.072Z,60.39
2022-10-03T08:55:56.387Z,60.76
2022-10-03T08:59:54.058Z,60.96
2022-10-03T09:03:59.242Z,62.06
2022-10-03T09:08:09.385Z,59.05
2022-10-03T09:12:06.822Z,60.00
2022-10-03T09:16:06.265Z,58.56
2022-10-03T09:20:01.110Z,56.17
2022-10-03T09:23:50.295Z,54.12
2022-10-03T09:27:42.639Z,50.01
2022-10-03T09:36:29.230Z,50.25
2022-10-03T09:40:27.210Z,50.09
2022-10-03T09:44:48.933Z,48.87
2022-10-03T09:49:19.260Z,50.84
2022-10-03T09:53:57.614Z,54.62
2022-10-03T09:57:58.931Z,56.31
2022-10-03T10:02:34.706Z,57.72
2022-10-03T10:07:06.195Z,57.32
2022-10-03T10:11:15.820Z,55.92
2022-10-03T10:19:36.629Z,55.97
2022-10-03T10:23:22.686Z,55.89
2022-10-03T10:27:40.251Z,56.70
2022-10-03T10:32:00.072Z,56.31
2022-10-03T10:36:24.905Z,58.22
2022-10-03T10:40:48.036Z,58.17
2022-10-03T10:45:25.609Z,59.10
2022-10-03T10:49:20.994Z,56.20
2022-10-03T10:53:28.579Z,56.76
2022-10-03T10:57:29.650Z,56.59
2022-10-03T11:01:58.801Z,58.20
2022-10-03T11:05:32.385Z,58.04
2022-10-03T11:09:11.825Z,56.67
2022-10-03T11:13:11.359Z,58.82
2022-10-03T11:16:39.953Z,57.87
2022-10-03T11:19:58.028Z,57.66
2022-10-03T11:23:27.303Z,59.57
2022-10-03T11:27:08.240Z,61.92
2022-10-03T11:30:39.784Z,61.30
2022-10-03T11:34:39.549Z,60.42
2022-10-03T11:38:38.756Z,60.29
2022-10-03T11:42:21.388Z,61.59
2022-10-03T11:45:55.269Z,62.76
2022-10-03T11:49:09.304Z,62.51
2022-10-03T11:52:55.152Z,62.66
2022-10-03T11:56:15.587Z,61.44
2022-10-03T12:00:16.879Z,60.99
2022-10-03T12:04:25.195Z,60.65
2022-10-03T12:08:52.204Z,59.64
2022-10-03T12:12:12.973Z,60.07
2022-10-03T12:15:25.924Z,60.85
2022-10-03T12:18:43.523Z,61.61
2022-10-03T12:21:50.583Z,63.01
2022-10-03T12:25:31.263Z,63.96
2022-10-03T12:28:45.225Z,64.24
2022-10-03T12:32:19.167Z,62.96
2022-10-03T12:35:44.435Z,60.78
2022-10-03T12:39:07.383Z,59.81
2022-10-03T12:42:31.067Z,60.65
2022-10-03T12:45:52.253Z,59.91
2022-10-03T12:49:02.769Z,59.39
2022-10-03T12:52:31.004Z,57.99
2022-10-03T12:55:38.178Z,58.74
2022-10-03T12:59:16.943Z,58.36
2022-10-03T13:02:43.683Z,59.22
2022-10-03T13:06:07.747Z,58.19
2022-10-03T13:09:30.060Z,57.61
2022-10-03T13:12:56.045Z,58.18
2022-10-03T13:16:28.123Z,57.94
2022-10-03T13:20:14.296Z,71.97
2022-10-03T13:23:47.362Z,83.71
2022-10-03T13:27:34.443Z,87.04
2022-10-03T13:30:48.578Z,90.28
2022-10-03T13:33:58.559Z,90.44
2022-10-03T13:40:38.341Z,85.14
2022-10-03T13:43:51.507Z,84.29
2022-10-03T13:47:05.179Z,79.34
2022-10-03T13:50:15.317Z,78.35
2022-10-03T13:53:44.692Z,75.74
2022-10-03T13:57:20.531Z,77.12
2022-10-03T14:00:26.493Z,73.42
2022-10-03T14:04:00.458Z,74.04
2022-10-03T14:07:38.404Z,74.12
2022-10-03T14:10:59.584Z,73.06
2022-10-03T14:14:14.883Z,72.61
2022-10-03T14:17:24.608Z,72.70
2022-10-03T14:20:58.851Z,71.26
2022-10-03T14:24:44.401Z,70.43
2022-10-03T14:28:37.278Z,69.20
2022-10-03T14:32:48.429Z,67.17
2022-10-03T14:40:26.498Z,68.37
2022-10-03T14:44:16.858Z,68.96
2022-10-03T14:51:50.537Z,69.63
2022-10-03T14:55:31.839Z,70.15
2022-10-03T14:59:22.014Z,68.59
2022-10-03T15:03:03.289Z,68.35
2022-10-03T15:06:47.782Z,66.97
2022-10-03T15:09:58.627Z,67.42
2022-10-03T15:13:48.541Z,64.47
2022-10-03T15:16:57.736Z,65.00
2022-10-03T15:20:32.620Z,63.08
2022-10-03T15:24:04.893Z,64.69
2022-10-03T15:27:21.939Z,64.16
2022-10-03T15:30:32.236Z,64.38
2022-10-03T15:33:57.789Z,65.31
2022-10-03T15:37:34.063Z,64.19
2022-10-03T15:41:09.426Z,65.00
2022-10-03T15:44:42.885Z,65.90
2022-10-03T15:48:15.345Z,65.66
2022-10-03T15:51:48.772Z,65.60
2022-10-03T16:02:59.092Z,64.74
2022-10-03T16:14:34.474Z,64.89
2022-10-03T16:22:02.428Z,65.69
2022-10-03T16:44:36.401Z,67.79
2022-10-03T16:48:34.263Z,68.40
2022-10-03T16:52:43.603Z,68.26
2022-10-03T16:56:34.837Z,68.18
2022-10-03T17:00:37.358Z,68.53
2022-10-03T17:04:40.359Z,68.82
2022-10-03T17:08:41.541Z,69.85
2022-10-03T17:12:05.474Z,69.70
2022-10-03T17:15:20.267Z,69.45
2022-10-03T17:18:28.221Z,70.20
2022-10-03T17:21:35.689Z,69.53
2022-10-03T17:25:07.991Z,69.98
2022-10-03T17:28:19.279Z,69.96
2022-10-03T17:31:29.109Z,70.33
2022-10-03T17:34:44.508Z,70.28
2022-10-03T17:38:49.366Z,69.80
2022-10-03T17:42:10.460Z,70.28
2022-10-03T17:45:35.093Z,70.27
2022-10-03T17:49:12.099Z,70.49
2022-10-03T17:52:21.364Z,71.26
2022-10-03T17:55:32.559Z,71.89
2022-10-03T17:59:02.950Z,70.80
2022-10-03T18:02:18.145Z,71.82
2022-10-03T18:05:46.644Z,72.74
2022-10-03T18:08:56.084Z,72.43
2022-10-03T18:12:20.224Z,72.70
2022-10-03T18:15:44.470Z,72.68
2022-10-03T18:19:24.014Z,72.83
2022-10-03T18:23:53.070Z,73.33
2022-10-03T18:27:32.175Z,73.97
2022-10-03T18:31:23.306Z,74.70
2022-10-03T18:35:27.933Z,74.84
2022-10-03T18:39:30.250Z,74.37
2022-10-03T18:42:58.624Z,74.82
2022-10-03T18:46:13.703Z,74.43
2022-10-03T18:49:41.328Z,74.39
2022-10-03T18:53:03.952Z,74.76
2022-10-03T18:56:30.667Z,74.16
2022-10-03T19:00:18.668Z,74.87
2022-10-03T19:03:38.844Z,74.94
2022-10-03T19:06:46.039Z,75.43
2022-10-03T19:10:21.891Z,75.10
2022-10-03T19:13:25.175Z,75.29
2022-10-03T19:16:43.371Z,75.30
2022-10-03T19:19:59.220Z,75.26
2022-10-03T19:23:14.200Z,75.90
2022-10-03T19:26:36.114Z,75.50
2022-10-03T19:29:59.229Z,75.45
2022-10-03T19:33:25.714Z,76.63
2022-10-03T19:36:38.792Z,77.51
2022-10-03T19:39:42.869Z,78.22
2022-10-03T19:42:52.240Z,78.40
2022-10-03T19:46:06.091Z,79.51
2022-10-03T19:49:31.107Z,80.21
2022-10-03T19:52:37.988Z,81.49
2022-10-03T19:55:41.701Z,81.65
2022-10-03T19:58:58.487Z,80.97
2022-10-03T20:02:08.060Z,80.71
2022-10-03T20:05:19.888Z,78.71
2022-10-03T20:08:59.091Z,77.84
2022-10-03T20:12:04.097Z,78.33
2022-10-03T20:15:23.218Z,77.28
2022-10-03T20:18:34.655Z,78.08
2022-10-03T20:21:39.774Z,77.63
2022-10-03T20:24:45.546Z,78.10
2022-10-03T20:27:54.288Z,78.05
2022-10-03T20:31:24.485Z,77.56
2022-10-03T20:34:30.960Z,77.60
2022-10-03T20:38:23.435Z,78.27
2022-10-03T20:41:47.956Z,76.76
2022-10-03T20:45:14.561Z,77.14
2022-10-03T20:48:43.182Z,77.55
2022-10-03T20:51:58.679Z,78.23
2022-10-03T20:55:06.496Z,79.10
2022-10-03T20:58:16.700Z,79.15
2022-10-03T21:01:26.703Z,79.41
2022-10-03T21:04:40.122Z,79.19
2022-10-03T21:08:33.330Z,79.31
2022-10-03T21:11:40.127Z,79.15
2022-10-03T21:14:47.489Z,78.96
2022-10-03T21:18:41.052Z,78.91
2022-10-03T21:22:10.798Z,78.71
2022-10-03T21:25:44.926Z,78.80
2022-10-03T21:29:37.715Z,78.90
2022-10-03T21:33:11.130Z,79.46
2022-10-03T21:37:00.944Z,78.81
2022-10-03T21:40:24.203Z,78.46
2022-10-03T21:44:04.733Z,79.11
2022-10-03T21:47:31.716Z,78.06
2022-10-03T21:50:54.561Z,78.72
2022-10-03T21:54:30.871Z,78.89
2022-10-03T21:58:24.456Z,79.33
2022-10-03T22:02:08.503Z,79.46
2022-10-03T22:05:39.319Z,79.97
2022-10-03T22:09:13.045Z,80.24
2022-10-03T22:12:22.840Z,80.38
2022-10-03T22:15:50.417Z,81.73
2022-10-03T22:19:43.678Z,82.43
2022-10-03T22:23:50.420Z,82.53
2022-10-03T22:27:23.605Z,81.88
2022-10-03T22:31:05.969Z,80.99
2022-10-03T22:34:42.301Z,80.45
2022-10-03T22:38:09.415Z,79.50
2022-10-03T22:42:15.694Z,79.35
2022-10-03T22:45:46.593Z,79.29
2022-10-03T22:49:28.358Z,80.30
2022-10-03T22:53:01.372Z,80.84
2022-10-03T22:56:38.345Z,80.56
2022-10-03T23:00:08.749Z,80.37
2022-10-03T23:03:52.465Z,81.05
2022-10-03T23:07:55.616Z,81.07
2022-10-03T23:11:28.293Z,81.40
2022-10-03T23:14:43.777Z,82.36
2022-10-03T23:22:27.789Z,81.48
2022-10-03T23:26:35.892Z,81.86
2022-10-03T23:30:20.439Z,81.64
2022-10-03T23:33:32.626Z,81.98
2022-10-03T23:37:14.876Z,82.99
2022-10-03T23:40:41.855Z,84.53
2022-10-03T23:44:29.232Z,85.29
2022-10-03T23:48:11.534Z,85.92
2022-10-03T23:51:37.404Z,86.06
2022-10-03T23:55:09.630Z,85.82
2022-10-03T23:58:43.912Z,84.98
